Time;durP1;ratioP1;P1;durP2;ratioP2;P2;SDS_P1;SDS_P2;PMS_P1;PMS_P2;Temp;Humidity;BMP_temperature;BMP_pressure;BME280_temperature;BME280_humidity;BME280_pressure;Samples;Min_cycle;Max_cycle;Signal;HPM_P1;HPM_P2
2020/12/16 00:01:41;;;;;;;25.35;10.90;;;3.90;99.90;;;;;;4972420;28;20030;-75
2020/12/16 00:04:06;;;;;;;29.95;12.20;;;3.90;99.90;;;;;;4972806;28;20038;-76
2020/12/16 00:06:33;;;;;;;29.40;12.10;;;3.90;99.90;;;;;;4967979;28;20614;-76
2020/12/16 00:08:59;;;;;;;24.52;11.13;;;4.00;99.90;;;;;;4962339;28;20034;-75
2020/12/16 00:11:24;;;;;;;26.55;11.10;;;4.00;99.90;;;;;;4973096;28;20165;-76
2020/12/16 00:13:50;;;;;;;25.30;11.13;;;3.90;99.90;;;;;;4969478;28;20041;-75
2020/12/16 00:16:16;;;;;;;25.52;11.30;;;3.90;99.90;;;;;;4955368;28;20031;-75
2020/12/16 00:18:43;;;;;;;29.77;11.52;;;4.00;99.90;;;;;;4969584;28;20504;-76
2020/12/16 00:21:09;;;;;;;26.00;12.23;;;4.00;99.90;;;;;;4972360;28;20106;-75
2020/12/16 00:23:34;;;;;;;28.50;11.93;;;4.00;99.90;;;;;;4990646;23;20189;-78
2020/12/16 00:26:00;;;;;;;27.75;11.30;;;4.00;99.90;;;;;;4979644;28;20078;-78
2020/12/16 00:28:26;;;;;;;27.05;11.02;;;4.00;99.90;;;;;;4985086;28;20038;-78
2020/12/16 00:30:51;;;;;;;25.08;11.23;;;4.00;99.90;;;;;;4990904;28;20042;-78
2020/12/16 00:33:18;;;;;;;27.38;12.43;;;4.10;99.90;;;;;;4992597;28;20022;-77
2020/12/16 00:35:44;;;;;;;24.17;10.93;;;4.00;99.90;;;;;;4983696;28;20027;-78
2020/12/16 00:38:12;;;;;;;26.52;11.35;;;4.10;99.90;;;;;;4977769;28;20085;-77
2020/12/16 00:40:38;;;;;;;29.20;11.80;;;4.10;99.90;;;;;;4992278;28;20054;-79
2020/12/16 00:43:04;;;;;;;28.25;11.75;;;4.10;99.90;;;;;;4988549;28;20031;-78
2020/12/16 00:45:30;;;;;;;28.42;11.55;;;4.10;99.90;;;;;;4963995;28;20034;-79
2020/12/16 00:47:57;;;;;;;26.67;11.82;;;4.10;99.90;;;;;;4981029;28;20089;-77
2020/12/16 00:50:24;;;;;;;24.52;10.68;;;4.00;99.90;;;;;;4991718;28;20777;-79
2020/12/16 00:52:54;;;;;;;27.77;11.80;;;4.00;99.90;;;;;;4975000;28;20113;-79
2020/12/16 00:55:20;;;;;;;30.90;12.60;;;3.90;99.90;;;;;;4985610;28;20512;-78
2020/12/16 00:57:46;;;;;;;31.67;11.82;;;3.90;99.90;;;;;;4978581;28;20030;-76
2020/12/16 01:00:13;;;;;;;30.95;12.57;;;3.90;99.90;;;;;;4988128;28;20037;-76
2020/12/16 01:02:43;;;;;;;26.38;11.68;;;3.90;99.90;;;;;;4989090;28;20061;-79
2020/12/16 01:05:11;;;;;;;22.70;11.68;;;3.90;99.90;;;;;;4986589;28;20025;-77
2020/12/16 01:07:41;;;;;;;23.63;11.93;;;3.90;99.90;;;;;;4977852;28;20194;-77
2020/12/16 01:10:11;;;;;;;26.27;12.65;;;3.90;99.90;;;;;;4991197;28;20030;-78
2020/12/16 01:12:41;;;;;;;30.88;12.32;;;3.90;99.90;;;;;;4973449;28;20082;-79
2020/12/16 01:15:14;;;;;;;28.27;11.55;;;3.90;99.90;;;;;;4985926;28;20053;-77
2020/12/16 01:17:41;;;;;;;29.27;11.77;;;3.90;99.90;;;;;;4971735;28;20031;-77
2020/12/16 01:20:08;;;;;;;27.23;12.70;;;3.90;99.90;;;;;;4981502;28;20034;-77
2020/12/16 01:22:48;;;;;;;29.67;12.07;;;3.90;99.90;;;;;;4973102;28;20026;-79
2020/12/16 01:25:21;;;;;;;33.53;12.85;;;3.90;99.90;;;;;;4977277;28;20086;-79
2020/12/16 01:27:53;;;;;;;;;;;3.90;99.90;;;;;;4979383;28;20031;-78
2020/12/16 01:30:19;;;;;;;31.05;12.27;;;4.00;99.90;;;;;;4963434;28;19914;-76
2020/12/16 01:32:45;;;;;;;26.27;12.93;;;3.90;99.90;;;;;;4954648;28;20117;-78
2020/12/16 01:35:11;;;;;;;35.70;13.15;;;3.90;99.90;;;;;;4974044;28;20126;-77
2020/12/16 01:37:39;;;;;;;31.10;12.50;;;3.90;99.90;;;;;;4971627;28;20039;-78
2020/12/16 01:40:07;;;;;;;29.65;13.45;;;3.90;99.90;;;;;;4979830;28;20034;-79
2020/12/16 01:42:37;;;;;;;28.98;12.45;;;3.90;99.90;;;;;;4967147;28;20031;-79
2020/12/16 01:45:05;;;;;;;28.17;12.80;;;3.90;99.90;;;;;;4961854;28;20019;-78
2020/12/16 01:47:31;;;;;;;36.00;13.68;;;3.90;99.90;;;;;;4955379;28;20123;-77
2020/12/16 01:50:08;;;;;;;31.17;12.87;;;3.90;99.90;;;;;;4956307;28;20057;-78
2020/12/16 01:52:36;;;;;;;32.20;12.45;;;3.90;99.90;;;;;;4945412;28;20035;-77
2020/12/16 01:55:03;;;;;;;27.38;13.07;;;3.90;99.90;;;;;;4959172;28;20035;-77
2020/12/16 01:57:40;;;;;;;32.00;12.90;;;3.90;99.90;;;;;;4946788;28;20041;-79
2020/12/16 02:00:14;;;;;;;32.67;12.32;;;3.90;99.90;;;;;;4968799;28;20092;-78
2020/12/16 02:02:50;;;;;;;28.70;12.43;;;3.90;99.90;;;;;;4957794;28;20047;-79
2020/12/16 02:05:25;;;;;;;33.42;13.50;;;3.80;99.90;;;;;;4963159;28;20031;-79
2020/12/16 02:07:58;;;;;;;30.88;12.77;;;3.90;99.90;;;;;;4957256;28;20034;-78
2020/12/16 02:10:28;;;;;;;33.53;12.15;;;3.90;99.90;;;;;;4954868;28;20185;-79
2020/12/16 02:12:54;;;;;;;33.45;13.50;;;3.80;99.90;;;;;;4970232;28;20122;-78
2020/12/16 02:15:56;;;;;;;25.38;10.85;;;3.80;99.90;;;;;;4974539;28;20031;-78
2020/12/16 02:18:24;;;;;;;29.05;12.48;;;3.80;99.90;;;;;;4961990;28;20112;-78
2020/12/16 02:20:57;;;;;;;30.88;11.82;;;3.90;99.90;;;;;;4989610;28;20046;-79
2020/12/16 02:23:26;;;;;;;34.70;13.27;;;3.80;99.90;;;;;;4986420;28;20039;-79
2020/12/16 02:25:53;;;;;;;31.45;13.65;;;3.90;99.90;;;;;;4953653;28;20031;-78
2020/12/16 02:28:19;;;;;;;35.17;12.65;;;3.90;99.90;;;;;;4974977;28;20061;-77
2020/12/16 02:30:48;;;;;;;29.58;12.77;;;3.80;99.90;;;;;;4974020;28;20128;-78
2020/12/16 02:33:25;;;;;;;28.02;11.63;;;3.80;99.90;;;;;;4958142;28;20053;-78
2020/12/16 02:35:57;;;;;;;30.17;12.75;;;3.90;99.90;;;;;;4971811;28;20074;-79
2020/12/16 02:38:46;;;;;;;29.38;12.93;;;3.90;99.90;;;;;;4984073;28;20035;-78
2020/12/16 02:41:14;;;;;;;29.77;12.63;;;3.90;99.90;;;;;;4989036;28;20424;-78
2020/12/16 02:43:40;;;;;;;29.50;12.52;;;3.90;99.90;;;;;;4990520;28;20492;-78
2020/12/16 02:46:06;;;;;;;27.85;11.68;;;3.90;99.90;;;;;;4981661;28;20031;-78
2020/12/16 02:48:32;;;;;;;29.02;12.93;;;3.90;99.90;;;;;;4974593;28;20023;-77
2020/12/16 02:50:59;;;;;;;27.95;12.32;;;3.90;99.90;;;;;;4973215;28;20031;-78
2020/12/16 02:53:27;;;;;;;26.98;11.75;;;3.90;99.90;;;;;;4989081;28;20034;-77
2020/12/16 02:56:12;;;;;;;27.60;12.13;;;3.90;99.90;;;;;;4980234;28;20046;-78
2020/12/16 02:58:48;;;;;;;24.52;11.60;;;3.90;99.90;;;;;;4988208;28;20035;-78
2020/12/16 03:01:15;;;;;;;26.80;12.50;;;3.90;99.90;;;;;;4977137;28;20038;-76
2020/12/16 03:04:03;;;;;;;24.58;12.07;;;3.90;99.90;;;;;;4992806;28;20030;-79
2020/12/16 03:06:49;;;;;;;28.38;12.57;;;3.90;99.90;;;;;;4973515;28;20031;-77
2020/12/16 03:09:20;;;;;;;29.65;12.00;;;3.90;99.90;;;;;;4964187;28;20038;-77
2020/12/16 03:11:53;;;;;;;25.98;12.07;;;3.90;99.90;;;;;;4957205;28;20031;-77
2020/12/16 03:14:24;;;;;;;25.70;11.23;;;3.90;99.90;;;;;;4976367;28;20035;-77
2020/12/16 03:16:54;;;;;;;25.95;11.52;;;3.90;99.90;;;;;;4960670;28;20038;-78
2020/12/16 03:19:27;;;;;;;25.20;11.43;;;3.90;99.90;;;;;;4968337;28;20035;-77
2020/12/16 03:21:54;;;;;;;25.92;11.68;;;3.90;99.90;;;;;;4978187;28;20054;-77
2020/12/16 03:24:29;;;;;;;26.50;12.00;;;3.90;99.90;;;;;;4969517;28;20053;-77
2020/12/16 03:27:04;;;;;;;24.67;11.45;;;3.90;99.90;;;;;;4951115;28;20046;-78
2020/12/16 03:29:53;;;;;;;24.48;11.65;;;3.90;99.90;;;;;;4984792;28;20038;-77
2020/12/16 03:32:45;;;;;;;31.90;12.63;;;3.90;99.90;;;;;;4983100;28;20042;-77
2020/12/16 03:35:34;;;;;;;26.20;11.65;;;3.90;99.90;;;;;;4973719;28;20133;-77
2020/12/16 03:38:03;;;;;;;24.73;11.75;;;3.90;99.90;;;;;;4982115;28;20049;-76
2020/12/16 03:40:31;;;;;;;26.75;12.68;;;4.00;99.90;;;;;;4972386;28;20039;-78
2020/12/16 03:43:01;;;;;;;23.15;10.65;;;3.90;99.90;;;;;;4964010;28;20018;-77
2020/12/16 03:45:26;;;;;;;23.35;11.68;;;4.00;99.90;;;;;;4960082;28;20165;-76
2020/12/16 03:47:53;;;;;;;23.75;10.48;;;4.00;99.90;;;;;;4974091;28;20664;-78
2020/12/16 03:50:19;;;;;;;26.30;11.93;;;4.00;99.90;;;;;;4985708;28;20117;-78
2020/12/16 03:52:47;;;;;;;25.13;11.85;;;4.00;99.90;;;;;;4989299;28;20048;-77
2020/12/16 03:55:31;;;;;;;25.20;11.63;;;4.00;99.90;;;;;;4970838;28;20053;-76
2020/12/16 03:58:26;;;;;;;26.50;12.20;;;4.00;99.90;;;;;;4936397;28;20493;-77
2020/12/16 04:01:20;;;;;;;20.63;10.77;;;4.00;99.90;;;;;;4930898;28;20054;-78
2020/12/16 04:03:49;;;;;;;23.92;10.75;;;4.00;99.90;;;;;;4970929;28;20688;-78
2020/12/16 04:06:22;;;;;;;24.65;11.73;;;4.00;99.90;;;;;;4979900;28;20031;-78
2020/12/16 04:08:53;;;;;;;26.15;13.13;;;4.10;99.90;;;;;;4962447;28;20080;-78
2020/12/16 04:11:33;;;;;;;25.90;11.23;;;4.10;99.90;;;;;;4939190;29;20046;-77
2020/12/16 04:14:10;;;;;;;22.98;11.70;;;4.10;99.90;;;;;;4941932;28;20038;-77
2020/12/16 04:16:39;;;;;;;25.60;12.10;;;4.10;99.90;;;;;;4971774;28;20490;-76
2020/12/16 04:19:10;;;;;;;26.42;12.30;;;4.10;99.90;;;;;;4971493;28;20030;-77
2020/12/16 04:21:36;;;;;;;25.10;11.90;;;4.10;99.90;;;;;;4974980;28;20034;-77
2020/12/16 04:24:03;;;;;;;23.60;10.80;;;4.10;99.90;;;;;;4991377;28;20035;-77
2020/12/16 04:26:47;;;;;;;26.40;11.60;;;4.10;99.90;;;;;;4979882;28;20060;-76
2020/12/16 04:29:16;;;;;;;23.08;11.00;;;4.10;99.90;;;;;;4968634;28;20273;-76
2020/12/16 04:31:42;;;;;;;26.10;12.00;;;4.10;99.90;;;;;;4974475;28;20177;-76
2020/12/16 04:34:09;;;;;;;28.70;11.75;;;4.10;99.90;;;;;;4985295;28;20027;-76
2020/12/16 04:36:36;;;;;;;23.17;11.25;;;4.10;99.90;;;;;;4978464;28;20035;-75
2020/12/16 04:39:03;;;;;;;27.90;11.27;;;4.10;99.90;;;;;;4988786;28;20386;-76
2020/12/16 04:41:28;;;;;;;29.25;11.57;;;4.10;99.90;;;;;;4974720;28;20035;-76
2020/12/16 04:44:09;;;;;;;20.63;10.30;;;4.10;99.90;;;;;;4976541;28;20540;-76
2020/12/16 04:46:41;;;;;;;29.13;12.07;;;4.10;99.90;;;;;;4990803;28;20129;-76
2020/12/16 04:49:19;;;;;;;27.50;10.82;;;4.10;99.90;;;;;;4976453;28;20500;-76
2020/12/16 04:51:51;;;;;;;23.80;11.73;;;4.10;99.90;;;;;;4956135;28;20113;-76
2020/12/16 04:54:28;;;;;;;20.45;10.93;;;4.10;99.90;;;;;;4967118;28;20481;-76
2020/12/16 04:56:58;;;;;;;22.83;10.75;;;4.10;99.90;;;;;;4979326;28;20093;-76
2020/12/16 04:59:32;;;;;;;24.70;11.43;;;4.00;99.90;;;;;;4953208;28;20517;-77
2020/12/16 05:02:13;;;;;;;24.80;12.32;;;4.10;99.90;;;;;;4951926;28;20056;-76
2020/12/16 05:04:59;;;;;;;;;;;4.10;99.90;;;;;;4966163;28;20489;-77
2020/12/16 05:07:28;;;;;;;;;;;4.10;99.90;;;;;;4980811;28;19910;-77
2020/12/16 05:09:54;;;;;;;27.67;11.88;;;4.20;99.90;;;;;;4975578;28;20382;-77
2020/12/16 05:12:20;;;;;;;25.35;11.35;;;4.20;99.90;;;;;;4991372;28;20030;-76
2020/12/16 05:14:46;;;;;;;26.88;12.27;;;4.20;99.90;;;;;;4987020;28;20109;-77
2020/12/16 05:17:11;;;;;;;21.40;10.77;;;4.20;99.90;;;;;;4977501;28;20038;-76
2020/12/16 05:19:46;;;;;;;23.45;11.82;;;4.20;99.90;;;;;;4982643;28;20077;-78
2020/12/16 05:22:19;;;;;;;21.35;11.75;;;4.20;99.90;;;;;;4989955;28;20034;-76
2020/12/16 05:24:46;;;;;;;23.35;11.60;;;4.20;99.90;;;;;;4975923;28;20026;-76
2020/12/16 05:27:25;;;;;;;26.80;11.82;;;4.20;99.90;;;;;;4977242;28;20042;-76
2020/12/16 05:29:59;;;;;;;22.85;11.07;;;4.20;99.90;;;;;;4992404;28;20109;-77
2020/12/16 05:32:29;;;;;;;27.83;12.00;;;4.10;99.90;;;;;;4989598;28;20130;-77
2020/12/16 05:34:56;;;;;;;26.17;12.05;;;4.20;99.90;;;;;;4987271;28;20073;-76
2020/12/16 05:37:26;;;;;;;26.90;11.35;;;4.20;99.90;;;;;;4973477;28;20070;-76
2020/12/16 05:39:57;;;;;;;24.40;11.60;;;4.20;99.90;;;;;;4984192;28;20036;-75
2020/12/16 05:42:25;;;;;;;24.13;10.65;;;4.20;99.90;;;;;;4989380;28;20030;-76
2020/12/16 05:44:52;;;;;;;27.92;11.93;;;4.20;99.90;;;;;;4986972;28;20105;-76
2020/12/16 05:47:20;;;;;;;27.40;11.40;;;4.20;99.90;;;;;;4980539;28;20030;-77
2020/12/16 05:49:52;;;;;;;23.33;11.52;;;4.20;99.90;;;;;;4991760;28;20030;-77
2020/12/16 05:52:18;;;;;;;27.38;12.43;;;4.20;99.90;;;;;;4989144;28;20043;-75
2020/12/16 05:54:49;;;;;;;23.30;11.55;;;4.10;99.90;;;;;;4985266;28;20041;-77
2020/12/16 05:57:29;;;;;;;26.83;11.93;;;4.10;99.90;;;;;;4978755;28;20493;-75
2020/12/16 06:00:04;;;;;;;31.85;11.48;;;4.10;99.90;;;;;;4992151;28;20026;-78
2020/12/16 06:02:43;;;;;;;29.63;11.80;;;4.10;99.90;;;;;;4990414;28;20030;-78
2020/12/16 06:05:14;;;;;;;31.80;12.82;;;4.10;99.90;;;;;;4985977;28;20034;-78
2020/12/16 06:07:45;;;;;;;27.98;11.90;;;4.10;99.90;;;;;;4977593;28;20030;-78
2020/12/16 06:10:11;;;;;;;32.00;13.15;;;4.10;99.90;;;;;;4987252;28;20085;-79
2020/12/16 06:12:39;;;;;;;36.20;13.10;;;4.10;99.90;;;;;;4990570;28;20034;-79
2020/12/16 06:15:10;;;;;;;34.17;12.70;;;4.10;99.90;;;;;;4979935;28;20097;-78
2020/12/16 06:17:42;;;;;;;30.15;13.02;;;4.10;99.90;;;;;;4973313;28;20030;-78
2020/12/16 06:20:14;;;;;;;29.02;12.88;;;4.20;99.90;;;;;;4952956;28;20074;-78
2020/12/16 06:22:42;;;;;;;32.85;13.13;;;4.30;99.90;;;;;;4977443;23;20038;-77
2020/12/16 06:25:09;;;;;;;33.28;13.98;;;4.20;99.90;;;;;;4985674;28;20074;-76
2020/12/16 06:27:49;;;;;;;32.00;13.45;;;4.30;99.90;;;;;;4982942;28;20022;-77
2020/12/16 06:30:30;;;;;;;32.58;14.35;;;4.30;99.90;;;;;;4998071;28;20041;-77
2020/12/16 06:33:34;;;;;;;30.48;13.68;;;4.30;99.90;;;;;;4973942;28;20094;-77
2020/12/16 06:36:04;;;;;;;30.17;12.63;;;4.40;99.90;;;;;;4977008;28;20466;-77
2020/12/16 06:38:37;;;;;;;30.92;13.07;;;4.40;99.90;;;;;;4976680;28;20103;-77
2020/12/16 06:41:03;;;;;;;28.80;12.70;;;4.40;99.90;;;;;;4977131;28;20049;-76
2020/12/16 06:43:32;;;;;;;29.60;12.68;;;4.40;99.90;;;;;;4974464;28;20121;-76
2020/12/16 06:46:03;;;;;;;26.83;12.00;;;4.40;99.90;;;;;;4974538;28;20182;-77
2020/12/16 06:48:37;;;;;;;29.92;12.55;;;4.40;99.90;;;;;;4977978;28;20563;-77
2020/12/16 06:51:20;;;;;;;31.67;12.63;;;4.30;99.90;;;;;;4976565;28;20054;-77
2020/12/16 06:53:48;;;;;;;26.48;11.25;;;4.30;99.90;;;;;;4978151;28;20034;-78
2020/12/16 06:56:19;;;;;;;24.00;10.05;;;4.30;99.90;;;;;;4971018;28;20031;-77
2020/12/16 06:58:46;;;;;;;22.58;10.10;;;4.30;99.90;;;;;;4975857;28;20481;-77
2020/12/16 07:01:16;;;;;;;19.15;10.15;;;4.30;99.90;;;;;;4976450;28;20037;-77
2020/12/16 07:03:43;;;;;;;22.65;10.20;;;4.30;99.90;;;;;;4975337;28;20030;-77
2020/12/16 07:06:31;;;;;;;20.48;10.35;;;4.40;99.90;;;;;;4974014;28;20039;-78
2020/12/16 07:09:18;;;;;;;35.22;13.57;;;4.30;99.90;;;;;;4974669;28;20027;-77
2020/12/16 07:11:49;;;;;;;36.28;13.27;;;4.40;99.90;;;;;;4976060;28;20022;-77
2020/12/16 07:14:21;;;;;;;35.42;13.50;;;4.50;99.90;;;;;;4970606;28;20030;-77
2020/12/16 07:16:48;;;;;;;31.35;13.65;;;4.60;99.90;;;;;;4958968;28;20045;-77
2020/12/16 07:19:15;;;;;;;32.30;13.25;;;4.60;99.90;;;;;;4974298;28;20049;-76
2020/12/16 07:21:42;;;;;;;29.80;13.15;;;4.60;99.90;;;;;;4974249;28;20560;-77
2020/12/16 07:24:14;;;;;;;32.72;13.13;;;4.60;99.90;;;;;;4977000;28;20109;-76
2020/12/16 07:26:50;;;;;;;27.30;12.45;;;4.50;99.90;;;;;;4986871;28;20053;-77
2020/12/16 07:29:27;;;;;;;24.25;10.20;;;4.40;99.90;;;;;;4961083;28;20414;-77
2020/12/16 07:32:13;;;;;;;23.73;10.35;;;4.40;99.90;;;;;;4975208;28;20066;-76
2020/12/16 07:34:45;;;;;;;24.52;10.35;;;4.40;99.90;;;;;;4971675;28;20420;-77
2020/12/16 07:37:11;;;;;;;24.45;10.68;;;4.40;99.90;;;;;;4974982;28;20034;-77
2020/12/16 07:39:51;;;;;;;30.40;12.50;;;4.40;99.90;;;;;;4971520;28;20090;-77
2020/12/16 07:42:23;;;;;;;24.55;11.63;;;4.40;99.90;;;;;;4969242;28;20080;-76
2020/12/16 07:44:49;;;;;;;27.70;11.75;;;4.40;99.90;;;;;;4974544;28;20038;-77
2020/12/16 07:47:17;;;;;;;28.70;12.50;;;4.40;99.90;;;;;;4936626;29;20544;-77
2020/12/16 07:49:43;;;;;;;30.52;13.65;;;4.50;99.90;;;;;;4968888;28;20081;-77
2020/12/16 07:52:09;;;;;;;31.35;13.70;;;4.50;99.90;;;;;;4975216;28;20499;-77
2020/12/16 07:54:35;;;;;;;30.35;12.75;;;4.50;99.90;;;;;;4965982;28;20494;-77
2020/12/16 07:57:01;;;;;;;31.55;12.48;;;4.50;99.90;;;;;;4974711;28;20054;-77
2020/12/16 07:59:33;;;;;;;27.05;12.30;;;4.50;99.90;;;;;;4975996;28;20105;-77
2020/12/16 08:02:14;;;;;;;33.88;13.02;;;4.50;99.90;;;;;;4963626;28;20496;-77
2020/12/16 08:04:42;;;;;;;29.80;12.38;;;4.50;99.90;;;;;;4973488;28;20031;-77
2020/12/16 08:07:19;;;;;;;29.02;12.23;;;4.60;99.90;;;;;;4969432;28;20110;-77
2020/12/16 08:10:01;;;;;;;32.92;13.77;;;4.60;99.90;;;;;;4966998;28;20038;-77
2020/12/16 08:12:30;;;;;;;36.97;12.77;;;4.60;99.90;;;;;;4974348;28;20027;-77
2020/12/16 08:15:07;;;;;;;32.55;13.45;;;4.60;99.90;;;;;;4970449;28;20126;-77
2020/12/16 08:17:43;;;;;;;33.03;13.18;;;4.70;99.90;;;;;;4963999;28;20065;-75
2020/12/16 08:20:17;;;;;;;36.78;14.07;;;4.70;99.90;;;;;;4967701;28;20043;-76
2020/12/16 08:22:45;;;;;;;33.35;13.77;;;4.80;99.90;;;;;;4964368;28;20032;-75
2020/12/16 08:25:12;;;;;;;30.45;12.52;;;4.80;99.90;;;;;;4970597;28;20031;-75
2020/12/16 08:27:46;;;;;;;33.88;13.52;;;4.80;99.90;;;;;;4962984;28;20509;-75
2020/12/16 08:30:23;;;;;;;35.05;14.65;;;4.80;99.90;;;;;;4974411;28;20030;-75
2020/12/16 08:33:03;;;;;;;33.13;13.77;;;4.80;99.90;;;;;;4956506;28;20046;-75
2020/12/16 08:35:43;;;;;;;35.88;15.43;;;4.90;99.90;;;;;;4970564;28;20508;-75
2020/12/16 08:38:12;;;;;;;31.20;13.30;;;4.90;99.90;;;;;;4963722;28;20117;-75
2020/12/16 08:40:46;;;;;;;31.90;13.80;;;4.90;99.90;;;;;;4970516;28;20047;-75
2020/12/16 08:43:29;;;;;;;33.93;13.70;;;4.90;99.90;;;;;;4959511;28;20038;-75
2020/12/16 08:45:59;;;;;;;35.13;14.02;;;5.00;99.90;;;;;;4967751;28;20165;-75
2020/12/16 08:48:25;;;;;;;26.92;12.82;;;5.00;99.90;;;;;;4964409;28;20031;-75
2020/12/16 08:51:33;;;;;;;32.40;13.88;;;5.00;99.90;;;;;;4972253;28;20105;-75
2020/12/16 08:54:02;;;;;;;34.85;13.73;;;5.00;99.90;;;;;;4967872;28;20113;-74
2020/12/16 08:56:29;;;;;;;30.80;12.80;;;4.90;99.90;;;;;;4966124;28;20039;-75
2020/12/16 08:59:18;;;;;;;30.40;13.65;;;5.00;99.90;;;;;;4971934;28;20042;-75
2020/12/16 09:01:53;;;;;;;34.88;12.75;;;5.00;99.90;;;;;;4972515;28;20039;-74
2020/12/16 09:04:25;;;;;;;28.60;12.80;;;4.90;99.90;;;;;;4969597;28;20027;-75
2020/12/16 09:07:03;;;;;;;29.63;13.10;;;4.80;99.90;;;;;;4975985;28;20042;-74
2020/12/16 09:09:29;;;;;;;30.45;12.68;;;4.90;99.90;;;;;;4961807;28;20038;-75
2020/12/16 09:11:55;;;;;;;33.55;13.73;;;4.90;99.90;;;;;;4958434;28;20049;-74
2020/12/16 09:14:23;;;;;;;30.27;13.15;;;5.00;99.90;;;;;;4965000;28;20027;-75
2020/12/16 09:16:49;;;;;;;28.88;12.73;;;4.90;99.90;;;;;;4971186;28;20062;-75
2020/12/16 09:19:19;;;;;;;31.48;12.77;;;4.90;99.90;;;;;;4972605;28;20039;-75
2020/12/16 09:21:45;;;;;;;28.67;11.70;;;5.00;99.90;;;;;;4966471;28;20022;-75
2020/12/16 09:24:11;;;;;;;26.85;11.75;;;5.10;99.90;;;;;;4955919;28;20138;-75
2020/12/16 09:26:39;;;;;;;31.13;12.05;;;5.20;99.90;;;;;;4965553;28;20110;-75
2020/12/16 09:29:20;;;;;;;25.73;11.60;;;5.30;99.90;;;;;;4976732;28;20026;-75
2020/12/16 09:31:47;;;;;;;24.13;11.63;;;5.40;99.90;;;;;;4986963;28;20031;-75
2020/12/16 09:34:13;;;;;;;21.38;11.20;;;5.40;99.90;;;;;;4968477;28;20023;-75
2020/12/16 09:36:39;;;;;;;26.05;12.48;;;5.50;99.90;;;;;;4956643;28;20031;-75
2020/12/16 09:39:07;;;;;;;30.02;12.27;;;5.60;99.90;;;;;;4970448;28;20035;-75
2020/12/16 09:41:47;;;;;;;22.75;10.50;;;5.70;99.90;;;;;;4966094;28;20028;-75
2020/12/16 09:44:24;;;;;;;25.10;11.68;;;5.80;99.90;;;;;;4967803;28;20039;-75
2020/12/16 09:46:49;;;;;;;26.10;11.75;;;5.90;99.90;;;;;;4981416;28;20401;-75
2020/12/16 09:49:21;;;;;;;28.02;11.65;;;6.00;99.90;;;;;;4968093;28;20041;-75
2020/12/16 09:51:47;;;;;;;28.25;11.88;;;6.10;99.90;;;;;;4971357;28;20042;-75
2020/12/16 09:54:39;;;;;;;24.65;12.52;;;6.20;99.90;;;;;;4968999;28;20027;-74
2020/12/16 09:57:09;;;;;;;24.02;12.57;;;6.30;99.90;;;;;;4967820;28;20085;-75
2020/12/16 09:59:35;;;;;;;22.95;10.90;;;6.30;99.90;;;;;;4962898;28;20058;-75
2020/12/16 10:02:03;;;;;;;24.65;10.93;;;6.40;99.90;;;;;;4961032;28;20035;-74
2020/12/16 10:04:28;;;;;;;23.17;11.20;;;6.50;99.90;;;;;;4961561;28;20756;-74
2020/12/16 10:06:55;;;;;;;22.15;10.68;;;6.50;99.90;;;;;;4951593;28;20113;-74
2020/12/16 10:09:21;;;;;;;22.05;10.93;;;6.50;99.90;;;;;;4967347;28;20039;-76
2020/12/16 10:11:48;;;;;;;20.48;10.00;;;6.50;99.90;;;;;;4967009;28;20063;-74
2020/12/16 10:14:17;;;;;;;18.10;9.38;;;6.70;99.90;;;;;;4965810;28;20035;-74
2020/12/16 10:16:47;;;;;;;18.65;9.23;;;6.80;99.90;;;;;;4960937;28;20062;-74
2020/12/16 10:19:16;;;;;;;17.20;9.32;;;6.80;99.90;;;;;;4968147;28;20467;-75
2020/12/16 10:21:45;;;;;;;18.02;8.43;;;6.90;99.90;;;;;;4958223;28;20023;-73
2020/12/16 10:24:11;;;;;;;14.50;8.20;;;7.10;99.90;;;;;;4963339;28;20043;-74
2020/12/16 10:26:37;;;;;;;18.25;8.15;;;7.20;99.90;;;;;;4950577;28;20449;-75
2020/12/16 10:29:02;;;;;;;16.73;8.75;;;7.30;99.90;;;;;;4966690;28;20082;-73
2020/12/16 10:31:28;;;;;;;15.98;7.95;;;7.40;99.90;;;;;;4964860;28;20554;-74
2020/12/16 10:33:57;;;;;;;13.48;7.60;;;7.50;99.90;;;;;;4956213;28;20094;-75
2020/12/16 10:36:22;;;;;;;16.75;7.82;;;7.60;99.90;;;;;;4963888;28;20058;-73
2020/12/16 10:38:48;;;;;;;14.05;7.65;;;7.80;99.90;;;;;;4967964;28;20588;-73
2020/12/16 10:41:14;;;;;;;16.67;8.48;;;7.90;99.90;;;;;;4956120;28;20035;-73
2020/12/16 10:43:40;;;;;;;15.02;7.80;;;7.90;99.90;;;;;;4957401;28;20663;-73
2020/12/16 10:46:08;;;;;;;16.33;8.43;;;7.90;99.90;;;;;;4956091;28;20474;-74
2020/12/16 10:48:34;;;;;;;14.95;7.80;;;7.90;99.90;;;;;;4954371;28;20445;-74
2020/12/16 10:51:00;;;;;;;13.95;7.35;;;7.90;99.90;;;;;;4958317;28;20039;-73
2020/12/16 10:53:26;;;;;;;13.93;7.15;;;7.90;99.90;;;;;;4957550;28;20772;-73
2020/12/16 10:55:53;;;;;;;17.70;8.25;;;7.90;99.90;;;;;;4960613;28;20039;-74
2020/12/16 10:58:20;;;;;;;14.10;7.63;;;7.80;99.90;;;;;;4958522;28;20089;-73
2020/12/16 11:00:46;;;;;;;15.23;7.57;;;7.70;99.90;;;;;;4960715;28;20031;-73
2020/12/16 11:03:11;;;;;;;12.70;6.32;;;7.70;99.90;;;;;;4958064;28;20061;-73
2020/12/16 11:05:37;;;;;;;14.15;6.20;;;7.70;99.90;;;;;;4960042;28;20050;-73
2020/12/16 11:08:05;;;;;;;11.45;6.65;;;7.60;99.90;;;;;;4954876;28;20126;-73
2020/12/16 11:10:31;;;;;;;11.02;6.10;;;7.60;99.90;;;;;;4960402;28;20039;-73
2020/12/16 11:12:57;;;;;;;13.23;6.97;;;7.60;99.90;;;;;;4954843;28;20051;-73
2020/12/16 11:15:23;;;;;;;12.73;6.28;;;7.60;99.90;;;;;;4965397;28;20039;-73
2020/12/16 11:17:48;;;;;;;16.10;7.28;;;7.50;99.90;;;;;;4963313;28;20061;-74
2020/12/16 11:20:14;;;;;;;14.75;8.10;;;7.50;99.90;;;;;;4959643;28;20493;-73
2020/12/16 11:22:40;;;;;;;16.58;7.45;;;7.60;99.90;;;;;;4965047;28;20118;-73
2020/12/16 11:25:06;;;;;;;12.45;6.32;;;7.60;99.90;;;;;;4958910;28;20042;-74
2020/12/16 11:27:31;;;;;;;12.48;6.43;;;7.70;99.90;;;;;;4968019;28;20035;-74
2020/12/16 11:29:57;;;;;;;14.90;7.35;;;7.70;99.90;;;;;;4961456;28;20046;-74
2020/12/16 11:32:23;;;;;;;13.73;7.35;;;7.70;99.90;;;;;;4950293;28;20073;-74
2020/12/16 11:34:49;;;;;;;13.30;7.47;;;7.80;99.90;;;;;;4961124;28;20035;-74
2020/12/16 11:37:15;;;;;;;18.15;7.45;;;7.90;99.90;;;;;;4964979;28;20054;-74
2020/12/16 11:39:42;;;;;;;18.15;8.82;;;7.90;99.90;;;;;;4963990;28;20031;-74
2020/12/16 11:42:08;;;;;;;20.45;8.68;;;7.90;99.90;;;;;;4957677;28;20397;-74
2020/12/16 11:44:35;;;;;;;15.15;7.97;;;7.90;99.90;;;;;;4962978;28;20046;-74
2020/12/16 11:47:04;;;;;;;15.02;8.48;;;7.90;99.90;;;;;;4966185;28;20134;-74
2020/12/16 11:49:30;;;;;;;14.00;7.30;;;7.90;99.90;;;;;;4985988;28;20045;-74
2020/12/16 11:51:56;;;;;;;13.27;7.32;;;7.80;99.90;;;;;;4984074;28;20031;-74
2020/12/16 11:54:22;;;;;;;14.13;7.43;;;7.80;99.90;;;;;;4966173;28;20046;-74
2020/12/16 11:56:49;;;;;;;13.18;5.88;;;7.70;99.90;;;;;;4962318;28;20180;-74
2020/12/16 11:59:14;;;;;;;12.75;6.32;;;7.60;99.90;;;;;;4966890;28;20047;-73
2020/12/16 12:01:43;;;;;;;12.45;6.30;;;7.50;99.90;;;;;;4968563;28;20081;-74
2020/12/16 12:04:09;;;;;;;14.45;7.65;;;7.40;99.90;;;;;;4967596;28;20026;-74
2020/12/16 12:06:35;;;;;;;12.82;6.65;;;7.40;99.90;;;;;;4957643;28;20055;-74
2020/12/16 12:09:01;;;;;;;10.55;6.47;;;7.40;99.90;;;;;;4959736;28;20705;-74
2020/12/16 12:11:28;;;;;;;14.77;6.70;;;7.40;99.90;;;;;;4958864;28;20027;-74
2020/12/16 12:13:53;;;;;;;12.57;6.50;;;7.30;99.90;;;;;;4946221;28;20055;-74
2020/12/16 12:16:19;;;;;;;12.65;6.85;;;7.30;99.90;;;;;;4965821;28;20077;-73
2020/12/16 12:18:45;;;;;;;12.43;6.57;;;7.20;99.90;;;;;;4954214;28;20030;-73
2020/12/16 12:21:16;;;;;;;14.85;7.32;;;7.20;99.90;;;;;;4959859;28;20062;-73
2020/12/16 12:23:42;;;;;;;15.27;7.43;;;7.10;99.90;;;;;;4983999;23;22344;-74
2020/12/16 12:26:08;;;;;;;15.25;7.80;;;7.10;99.90;;;;;;4979433;28;20054;-74
2020/12/16 12:28:33;;;;;;;14.55;7.30;;;7.00;99.90;;;;;;4981008;28;20027;-75
2020/12/16 12:30:59;;;;;;;12.88;6.43;;;6.90;99.90;;;;;;4978645;28;20617;-75
2020/12/16 12:33:26;;;;;;;13.82;6.50;;;6.90;99.90;;;;;;4982061;28;20101;-75
2020/12/16 12:35:52;;;;;;;17.52;7.10;;;6.90;99.90;;;;;;4966662;28;20718;-75
2020/12/16 12:38:17;;;;;;;16.00;7.43;;;6.90;99.90;;;;;;4967823;28;20035;-75
2020/12/16 12:40:44;;;;;;;16.65;7.82;;;6.90;99.90;;;;;;4963332;28;20046;-75
2020/12/16 12:43:10;;;;;;;12.38;6.70;;;6.90;99.90;;;;;;4969724;28;20038;-74
2020/12/16 12:45:36;;;;;;;16.40;7.25;;;6.90;99.90;;;;;;4969743;28;20110;-75
2020/12/16 12:48:02;;;;;;;13.77;7.28;;;6.80;99.90;;;;;;4968189;28;20581;-74
2020/12/16 12:50:28;;;;;;;13.70;7.20;;;6.90;99.90;;;;;;4970376;28;20030;-75
2020/12/16 12:52:53;;;;;;;14.68;7.65;;;6.90;99.90;;;;;;4962708;28;20039;-75
2020/12/16 12:55:19;;;;;;;12.60;6.65;;;7.00;99.90;;;;;;4966459;28;20038;-74
2020/12/16 12:57:46;;;;;;;15.10;8.45;;;7.00;99.90;;;;;;4956249;28;20031;-75